createdAt,value
2023-02-16T00:01:46.528Z,87.70
2023-02-16T00:04:19.831Z,86.90
2023-02-16T00:06:48.086Z,86.30
2023-02-16T00:09:16.806Z,85.90
2023-02-16T00:12:02.510Z,86.70
2023-02-16T00:14:30.719Z,90.00
2023-02-16T00:17:00.742Z,88.80
2023-02-16T00:19:30.543Z,88.00
2023-02-16T00:22:00.409Z,90.90
2023-02-16T00:24:30.550Z,92.00
2023-02-16T00:26:59.420Z,88.50
2023-02-16T00:29:30.020Z,94.50
2023-02-16T00:32:01.145Z,98.40
2023-02-16T00:34:33.224Z,99.90
2023-02-16T00:37:02.924Z,99.10
2023-02-16T00:39:31.658Z,97.30
2023-02-16T00:42:04.030Z,93.70
2023-02-16T00:44:35.115Z,91.80
2023-02-16T00:47:11.689Z,90.00
2023-02-16T00:49:39.876Z,87.30
2023-02-16T00:52:34.297Z,90.50
2023-02-16T00:55:03.845Z,89.20
2023-02-16T00:57:35.124Z,94.30
2023-02-16T01:00:06.453Z,93.60
2023-02-16T01:02:36.179Z,91.50
2023-02-16T01:05:04.619Z,89.10
2023-02-16T01:07:50.432Z,87.00
2023-02-16T01:10:37.078Z,87.30
2023-02-16T01:13:05.415Z,86.30
2023-02-16T01:15:35.807Z,86.10
2023-02-16T01:18:05.720Z,90.70
2023-02-16T01:20:36.254Z,93.00
2023-02-16T01:23:05.092Z,90.60
2023-02-16T01:25:33.890Z,87.60
2023-02-16T01:28:02.101Z,85.50
2023-02-16T01:30:30.599Z,85.70
2023-02-16T01:32:58.756Z,88.30
2023-02-16T01:35:34.323Z,91.10
2023-02-16T01:38:02.625Z,93.90
2023-02-16T01:40:39.392Z,96.30
2023-02-16T01:43:20.272Z,97.50
2023-02-16T01:45:55.658Z,98.10
2023-02-16T01:48:27.132Z,98.70
2023-02-16T01:51:04.871Z,96.40
2023-02-16T01:53:40.063Z,95.00
2023-02-16T01:56:17.182Z,93.90
2023-02-16T01:58:48.702Z,90.80
2023-02-16T02:01:40.783Z,89.80
2023-02-16T02:04:34.372Z,90.70
2023-02-16T02:07:03.912Z,89.10
2023-02-16T02:09:39.255Z,86.70
2023-02-16T02:12:19.724Z,86.50
2023-02-16T02:14:49.367Z,84.90
2023-02-16T02:17:22.190Z,85.20
2023-02-16T02:20:00.780Z,84.40
2023-02-16T02:23:26.712Z,83.40
2023-02-16T02:26:43.088Z,82.50
2023-02-16T02:29:39.203Z,88.30
2023-02-16T02:32:17.676Z,94.20
2023-02-16T02:35:02.838Z,95.30
2023-02-16T02:37:45.298Z,93.90
2023-02-16T02:40:24.226Z,93.20
2023-02-16T02:43:04.305Z,95.60
2023-02-16T02:45:37.496Z,94.30
2023-02-16T02:48:05.887Z,90.90
2023-02-16T02:50:40.318Z,89.80
2023-02-16T02:53:14.008Z,91.00
2023-02-16T02:56:04.294Z,88.90
2023-02-16T02:59:06.732Z,85.60
2023-02-16T03:01:37.963Z,91.00
2023-02-16T03:04:18.038Z,90.30
2023-02-16T03:06:49.648Z,88.00
2023-02-16T03:09:19.088Z,90.00
2023-02-16T03:12:07.734Z,87.90
2023-02-16T03:14:41.075Z,86.00
2023-02-16T03:17:31.029Z,85.80
2023-02-16T03:20:18.072Z,86.20
2023-02-16T03:23:04.560Z,84.00
2023-02-16T03:25:53.929Z,82.60
2023-02-16T03:28:43.526Z,81.80
2023-02-16T03:31:17.124Z,82.50
2023-02-16T03:33:46.028Z,81.70
2023-02-16T03:36:14.244Z,81.30
2023-02-16T03:38:42.433Z,80.30
2023-02-16T03:41:10.566Z,81.20
2023-02-16T03:43:38.803Z,80.70
2023-02-16T03:46:07.207Z,80.30
2023-02-16T03:48:36.833Z,80.60
2023-02-16T03:51:05.404Z,80.20
2023-02-16T03:53:33.900Z,81.00
2023-02-16T03:56:02.068Z,82.30
2023-02-16T03:58:30.573Z,82.20
2023-02-16T04:00:59.576Z,82.10
2023-02-16T04:03:28.203Z,81.90
2023-02-16T04:05:57.698Z,83.80
2023-02-16T04:08:25.792Z,84.90
2023-02-16T04:10:54.306Z,84.60
2023-02-16T04:13:21.458Z,83.90
2023-02-16T04:15:50.356Z,81.90
2023-02-16T04:18:18.433Z,87.70
2023-02-16T04:20:46.671Z,92.00
2023-02-16T04:23:16.213Z,90.80
2023-02-16T04:25:44.542Z,87.90
2023-02-16T04:28:12.713Z,85.60
2023-02-16T04:30:40.974Z,84.30
2023-02-16T04:33:09.298Z,84.30
2023-02-16T04:35:37.500Z,84.80
2023-02-16T04:38:05.811Z,85.30
2023-02-16T04:40:35.600Z,88.00
2023-02-16T04:43:03.986Z,87.10
2023-02-16T04:45:32.670Z,85.20
2023-02-16T04:48:00.872Z,83.50
2023-02-16T04:50:29.060Z,82.70
2023-02-16T04:52:57.283Z,82.40
2023-02-16T04:55:25.617Z,85.40
2023-02-16T04:57:55.122Z,88.20
2023-02-16T05:00:23.783Z,90.80
2023-02-16T05:02:51.891Z,92.40
2023-02-16T05:05:20.366Z,90.90
2023-02-16T05:07:48.528Z,88.80
2023-02-16T05:10:16.821Z,86.20
2023-02-16T05:13:02.421Z,84.30
2023-02-16T05:15:32.204Z,84.10
2023-02-16T05:18:00.372Z,82.30
2023-02-16T05:20:42.500Z,81.50
2023-02-16T05:23:10.809Z,81.20
2023-02-16T05:25:38.976Z,81.50
2023-02-16T05:28:07.166Z,82.80
2023-02-16T05:30:37.298Z,82.40
2023-02-16T05:33:05.437Z,83.60
2023-02-16T05:35:35.488Z,83.50
2023-02-16T05:38:03.592Z,84.00
2023-02-16T05:40:31.911Z,83.60
2023-02-16T05:43:00.132Z,83.90
2023-02-16T05:45:28.322Z,83.30
2023-02-16T05:47:57.946Z,83.00
2023-02-16T05:50:25.995Z,82.50
2023-02-16T05:52:54.153Z,83.50
2023-02-16T05:55:22.359Z,85.60
2023-02-16T05:57:50.473Z,89.50
2023-02-16T06:00:19.070Z,93.20
2023-02-16T06:02:47.522Z,94.80
2023-02-16T06:05:17.358Z,96.00
2023-02-16T06:07:46.664Z,97.10
2023-02-16T06:10:16.277Z,97.30
2023-02-16T06:12:45.008Z,97.50
2023-02-16T06:15:13.669Z,97.60
2023-02-16T06:17:44.583Z,96.70
2023-02-16T06:20:13.148Z,94.50
2023-02-16T06:22:42.650Z,91.10
2023-02-16T06:25:11.754Z,88.20
2023-02-16T06:27:39.804Z,87.50
2023-02-16T06:30:09.652Z,86.00
2023-02-16T06:32:37.744Z,84.80
2023-02-16T06:35:06.154Z,84.00
2023-02-16T06:37:34.257Z,82.90
2023-02-16T06:40:03.676Z,84.10
2023-02-16T06:42:31.933Z,83.70
2023-02-16T06:45:00.260Z,84.60
2023-02-16T06:47:28.361Z,84.20
2023-02-16T06:49:56.619Z,85.10
2023-02-16T06:52:25.127Z,85.10
2023-02-16T06:54:53.526Z,83.70
2023-02-16T06:57:22.980Z,84.80
2023-02-16T06:59:51.182Z,83.50
2023-02-16T07:02:19.402Z,83.90
2023-02-16T07:04:47.507Z,83.60
2023-02-16T07:07:15.718Z,84.70
2023-02-16T07:09:44.639Z,84.90
2023-02-16T07:12:12.966Z,87.20
2023-02-16T07:14:44.089Z,90.00
2023-02-16T07:17:12.435Z,89.00
2023-02-16T07:19:40.530Z,86.70
2023-02-16T07:22:08.891Z,85.40
2023-02-16T07:24:37.285Z,84.10
2023-02-16T07:27:05.578Z,83.70
2023-02-16T07:29:33.666Z,84.10
2023-02-16T07:32:04.851Z,84.30
2023-02-16T07:34:33.258Z,83.60
2023-02-16T07:37:01.481Z,83.20
2023-02-16T07:39:31.040Z,83.40
2023-02-16T07:41:59.537Z,83.80
2023-02-16T07:44:28.036Z,83.80
2023-02-16T07:46:56.265Z,84.20
2023-02-16T07:49:25.765Z,84.60
2023-02-16T07:51:53.883Z,85.10
2023-02-16T07:54:22.026Z,86.00
2023-02-16T07:56:50.072Z,86.90
2023-02-16T07:59:18.200Z,87.50
2023-02-16T08:01:46.640Z,89.10
2023-02-16T08:04:14.831Z,88.60
2023-02-16T08:06:45.973Z,89.30
2023-02-16T08:09:14.079Z,90.00
2023-02-16T08:11:42.621Z,90.40
2023-02-16T08:14:11.990Z,90.90
2023-02-16T08:16:40.161Z,91.30
2023-02-16T08:19:11.150Z,91.70
2023-02-16T08:21:39.248Z,90.70
2023-02-16T08:24:09.737Z,91.50
2023-02-16T08:26:40.841Z,93.50
2023-02-16T08:29:12.715Z,97.10
2023-02-16T08:31:41.800Z,98.70
2023-02-16T08:34:11.294Z,99.90
2023-02-16T08:36:40.109Z,99.90
2023-02-16T08:39:16.931Z,99.90
2023-02-16T08:41:47.076Z,99.90
2023-02-16T08:44:16.353Z,99.90
2023-02-16T08:46:46.567Z,99.90
2023-02-16T08:49:17.001Z,99.90
2023-02-16T08:51:48.510Z,99.90
2023-02-16T08:54:20.238Z,99.90
2023-02-16T08:56:49.729Z,99.90
2023-02-16T08:59:20.356Z,99.90
2023-02-16T09:01:49.134Z,99.90
2023-02-16T09:04:19.858Z,99.90
2023-02-16T09:06:49.445Z,99.90
2023-02-16T09:09:19.495Z,99.90
2023-02-16T09:11:48.033Z,99.90
2023-02-16T09:14:16.545Z,99.90
2023-02-16T09:16:46.423Z,99.90
2023-02-16T09:19:16.184Z,99.90
2023-02-16T09:21:45.188Z,99.90
2023-02-16T09:24:13.567Z,99.90
2023-02-16T09:26:44.725Z,99.90
2023-02-16T09:29:14.194Z,99.90
2023-02-16T09:31:44.450Z,99.90
2023-02-16T09:34:17.756Z,99.90
2023-02-16T09:36:47.297Z,99.90
2023-02-16T09:39:16.657Z,95.90
2023-02-16T09:42:25.912Z,93.30
2023-02-16T09:45:03.700Z,90.80
2023-02-16T09:47:36.025Z,85.60
2023-02-16T09:50:07.198Z,83.50
2023-02-16T09:52:37.992Z,83.10
2023-02-16T09:55:09.261Z,83.30
2023-02-16T09:57:47.479Z,81.90
2023-02-16T10:00:29.407Z,81.90
2023-02-16T10:03:08.101Z,79.60
2023-02-16T10:05:46.008Z,79.80
2023-02-16T10:08:16.922Z,78.50
2023-02-16T10:10:49.748Z,77.60
2023-02-16T10:13:26.094Z,74.80
2023-02-16T10:15:57.771Z,73.40
2023-02-16T10:18:33.408Z,72.90
2023-02-16T10:21:05.818Z,71.50
2023-02-16T10:23:45.395Z,70.60
2023-02-16T10:26:21.783Z,69.20
2023-02-16T10:28:54.950Z,67.40
2023-02-16T10:31:30.406Z,66.40
2023-02-16T10:34:23.339Z,65.20
2023-02-16T10:37:09.510Z,64.40
2023-02-16T10:39:44.493Z,64.40
2023-02-16T10:42:21.709Z,63.10
2023-02-16T10:44:59.524Z,60.60
2023-02-16T10:47:34.112Z,57.10
2023-02-16T10:50:02.708Z,57.30
2023-02-16T10:52:35.356Z,54.70
2023-02-16T10:55:04.085Z,54.00
2023-02-16T10:57:33.644Z,54.00
2023-02-16T11:00:08.311Z,52.10
2023-02-16T11:02:40.015Z,50.90
2023-02-16T11:05:30.417Z,53.50
2023-02-16T11:08:01.725Z,51.10
2023-02-16T11:10:40.084Z,49.20
2023-02-16T11:13:17.973Z,49.00
2023-02-16T11:15:54.545Z,48.60
2023-02-16T11:18:33.181Z,47.30
2023-02-16T11:21:03.551Z,49.30
2023-02-16T11:23:33.787Z,48.80
2023-02-16T11:26:06.080Z,51.20
2023-02-16T11:28:36.029Z,50.30
2023-02-16T11:31:19.724Z,49.40
2023-02-16T11:34:01.096Z,48.60
2023-02-16T11:36:34.522Z,47.10
2023-02-16T11:39:06.958Z,50.10
2023-02-16T11:41:36.381Z,46.50
2023-02-16T11:44:05.610Z,46.90
2023-02-16T11:46:42.453Z,46.60
2023-02-16T11:49:32.842Z,48.80
2023-02-16T11:52:01.997Z,49.20
2023-02-16T11:54:30.173Z,48.40
2023-02-16T11:57:09.350Z,48.20
2023-02-16T11:59:38.862Z,48.60
2023-02-16T12:02:42.533Z,46.10
2023-02-16T12:05:27.117Z,47.10
2023-02-16T12:08:13.237Z,47.50
2023-02-16T12:10:54.076Z,46.00
2023-02-16T12:13:30.422Z,47.00
2023-02-16T12:16:13.012Z,45.80
2023-02-16T12:18:48.357Z,47.90
2023-02-16T12:21:25.676Z,45.80
2023-02-16T12:24:02.182Z,43.50
2023-02-16T12:26:44.076Z,44.40
2023-02-16T12:29:25.447Z,43.10
2023-02-16T12:32:05.643Z,41.60
2023-02-16T12:34:48.881Z,41.60
2023-02-16T12:37:25.558Z,43.20
2023-02-16T12:40:03.922Z,40.20
2023-02-16T12:42:51.070Z,39.80
2023-02-16T12:45:22.942Z,39.60
2023-02-16T12:47:56.885Z,38.40
2023-02-16T12:50:29.094Z,39.70
2023-02-16T12:53:03.205Z,39.00
2023-02-16T12:55:38.534Z,38.80
2023-02-16T12:58:16.901Z,40.40
2023-02-16T13:00:49.567Z,38.10
2023-02-16T13:03:29.914Z,38.90
2023-02-16T13:06:15.937Z,38.60
2023-02-16T13:08:49.358Z,38.40
2023-02-16T13:11:23.292Z,38.70
2023-02-16T13:13:53.866Z,36.50
2023-02-16T13:16:30.874Z,35.50
2023-02-16T13:18:59.822Z,36.60
2023-02-16T13:21:54.682Z,36.00
2023-02-16T13:24:36.245Z,37.00
2023-02-16T13:27:18.480Z,34.00
2023-02-16T13:30:00.544Z,35.20
2023-02-16T13:32:50.683Z,35.40
2023-02-16T13:35:43.003Z,36.00
2023-02-16T13:38:31.062Z,34.00
2023-02-16T13:41:20.846Z,33.90
2023-02-16T13:43:55.678Z,35.00
2023-02-16T13:46:30.590Z,35.10
2023-02-16T13:48:59.812Z,33.90
2023-02-16T13:51:31.047Z,34.90
2023-02-16T13:54:03.378Z,34.20
2023-02-16T13:56:37.988Z,33.70
2023-02-16T13:59:58.373Z,32.50
2023-02-16T14:02:55.898Z,32.60
2023-02-16T14:05:30.433Z,31.50
2023-02-16T14:08:20.921Z,30.80
2023-02-16T14:11:08.911Z,32.30
2023-02-16T14:13:49.970Z,32.00
2023-02-16T14:16:34.802Z,33.40
2023-02-16T14:19:06.329Z,32.50
2023-02-16T14:21:39.713Z,33.10
2023-02-16T14:24:14.327Z,33.90
2023-02-16T14:27:00.018Z,33.40
2023-02-16T14:29:31.470Z,34.50
2023-02-16T14:32:05.746Z,33.60
2023-02-16T14:34:40.730Z,33.80
2023-02-16T14:37:44.389Z,34.70
2023-02-16T14:40:19.604Z,34.50
2023-02-16T14:42:56.814Z,34.10
2023-02-16T14:46:02.806Z,34.20
2023-02-16T14:48:58.370Z,33.70
2023-02-16T14:51:50.873Z,34.30
2023-02-16T14:54:48.154Z,34.20
2023-02-16T14:57:19.325Z,34.70
2023-02-16T14:59:53.953Z,34.80
2023-02-16T15:02:28.280Z,34.40
2023-02-16T15:04:56.888Z,34.20
2023-02-16T15:07:28.013Z,33.60
2023-02-16T15:09:58.667Z,33.80
2023-02-16T15:12:41.221Z,33.40
2023-02-16T15:15:20.381Z,33.10
2023-02-16T15:17:49.613Z,33.30
2023-02-16T15:20:24.970Z,33.10
2023-02-16T15:22:56.181Z,33.70
2023-02-16T15:25:27.755Z,34.20
2023-02-16T15:28:01.915Z,34.00
2023-02-16T15:30:33.966Z,33.80
2023-02-16T15:33:04.069Z,34.20
2023-02-16T15:35:36.871Z,33.80
2023-02-16T15:38:09.072Z,33.50
2023-02-16T15:40:37.957Z,33.40
2023-02-16T15:43:26.841Z,33.50
2023-02-16T15:45:56.381Z,33.40
2023-02-16T15:48:30.454Z,33.10
2023-02-16T15:51:06.968Z,33.00
2023-02-16T15:53:40.133Z,33.10
2023-02-16T15:56:26.595Z,33.20
2023-02-16T15:58:56.007Z,33.70
2023-02-16T16:01:32.948Z,33.50
2023-02-16T16:04:04.437Z,33.20
2023-02-16T16:06:37.735Z,34.10
2023-02-16T16:09:08.534Z,33.80
2023-02-16T16:11:38.302Z,33.40
2023-02-16T16:14:07.531Z,33.30
2023-02-16T16:16:37.804Z,33.00
2023-02-16T16:19:16.466Z,32.70
2023-02-16T16:21:51.335Z,33.10
2023-02-16T16:24:35.043Z,33.00
2023-02-16T16:27:06.479Z,33.20
2023-02-16T16:29:38.278Z,33.20
2023-02-16T16:32:08.846Z,33.10
2023-02-16T16:34:38.960Z,32.90
2023-02-16T16:37:17.229Z,33.00
2023-02-16T16:39:58.182Z,32.80
2023-02-16T16:42:26.870Z,32.40
2023-02-16T16:45:00.908Z,32.40
2023-02-16T16:47:35.567Z,32.60
2023-02-16T16:50:09.277Z,32.70
2023-02-16T16:52:41.542Z,33.00
2023-02-16T16:55:32.211Z,32.60
2023-02-16T16:58:01.998Z,33.80
2023-02-16T17:00:34.481Z,33.00
2023-02-16T17:03:05.146Z,33.30
2023-02-16T17:05:33.425Z,33.30
2023-02-16T17:08:01.703Z,34.00
2023-02-16T17:10:30.505Z,34.10
2023-02-16T17:13:00.724Z,34.50
2023-02-16T17:15:33.114Z,34.80
2023-02-16T17:18:03.459Z,35.00
2023-02-16T17:20:32.035Z,35.30
2023-02-16T17:23:04.511Z,35.60
2023-02-16T17:25:34.530Z,36.00
2023-02-16T17:28:02.911Z,36.20
2023-02-16T17:30:31.182Z,36.20
2023-02-16T17:32:59.510Z,36.50
2023-02-16T17:35:29.459Z,36.90
2023-02-16T17:37:58.004Z,36.80
2023-02-16T17:40:27.244Z,37.20
2023-02-16T17:42:55.324Z,36.90
2023-02-16T17:45:23.508Z,37.30
2023-02-16T17:47:53.190Z,37.40
2023-02-16T17:50:22.089Z,37.30
2023-02-16T17:52:57.142Z,37.40
2023-02-16T17:55:25.638Z,37.70
2023-02-16T17:57:55.720Z,37.50
2023-02-16T18:00:24.014Z,37.30
2023-02-16T18:02:52.160Z,37.50
2023-02-16T18:05:20.258Z,36.80
2023-02-16T18:07:48.461Z,36.40
2023-02-16T18:10:30.983Z,36.50
2023-02-16T18:12:59.136Z,37.20
2023-02-16T18:15:27.432Z,36.20
2023-02-16T18:17:55.613Z,37.00
2023-02-16T18:20:24.051Z,36.30
2023-02-16T18:22:52.164Z,36.40
2023-02-16T18:25:21.709Z,36.40
2023-02-16T18:27:49.936Z,36.20
2023-02-16T18:30:18.928Z,36.50
2023-02-16T18:32:47.293Z,36.80
2023-02-16T18:35:17.125Z,37.10
2023-02-16T18:37:45.782Z,37.20
2023-02-16T18:40:17.822Z,37.30
2023-02-16T18:42:48.269Z,37.10
2023-02-16T18:45:16.442Z,37.50
2023-02-16T18:47:45.215Z,37.90
2023-02-16T18:50:13.655Z,37.20
2023-02-16T18:52:43.428Z,37.80
2023-02-16T18:55:11.830Z,38.00
2023-02-16T18:57:40.313Z,38.10
2023-02-16T19:00:14.697Z,37.90
2023-02-16T19:02:43.254Z,38.30
2023-02-16T19:05:12.225Z,37.70
2023-02-16T19:07:40.437Z,36.70
2023-02-16T19:10:10.413Z,36.80
2023-02-16T19:12:38.920Z,36.80
2023-02-16T19:15:09.569Z,36.80
2023-02-16T19:17:38.813Z,36.70
2023-02-16T19:20:09.802Z,37.20
2023-02-16T19:22:38.098Z,36.60
2023-02-16T19:25:07.637Z,36.00
2023-02-16T19:27:36.250Z,36.10
2023-02-16T19:30:04.743Z,36.00
2023-02-16T19:32:34.470Z,35.50
2023-02-16T19:35:03.735Z,35.30
2023-02-16T19:37:32.100Z,35.30
2023-02-16T19:40:00.297Z,35.30
2023-02-16T19:42:28.538Z,35.90
2023-02-16T19:44:56.837Z,35.40
2023-02-16T19:47:25.006Z,34.30
2023-02-16T19:49:54.499Z,35.10
2023-02-16T19:52:22.571Z,34.70
2023-02-16T19:54:50.932Z,34.60
2023-02-16T19:57:19.261Z,34.50
2023-02-16T19:59:47.666Z,34.80
2023-02-16T20:02:15.911Z,34.40
2023-02-16T20:04:44.268Z,33.80
2023-02-16T20:07:13.806Z,34.10
2023-02-16T20:09:42.014Z,34.40
2023-02-16T20:12:10.113Z,34.50
2023-02-16T20:14:38.225Z,34.70
2023-02-16T20:17:06.390Z,35.30
2023-02-16T20:19:34.670Z,35.30
2023-02-16T20:22:03.246Z,34.50
2023-02-16T20:24:32.736Z,34.60
2023-02-16T20:27:04.335Z,33.60
2023-02-16T20:29:33.261Z,34.50
2023-02-16T20:32:01.829Z,34.00
2023-02-16T20:34:30.217Z,35.10
2023-02-16T20:36:58.444Z,35.40
2023-02-16T20:39:26.716Z,34.70
2023-02-16T20:41:58.220Z,35.30
2023-02-16T20:44:26.466Z,35.10
2023-02-16T20:46:54.658Z,35.30
2023-02-16T20:49:22.996Z,35.30
2023-02-16T20:51:51.178Z,35.80
2023-02-16T20:54:19.330Z,36.20
2023-02-16T20:56:47.532Z,36.20
2023-02-16T20:59:16.980Z,36.30
2023-02-16T21:01:47.545Z,36.50
2023-02-16T21:04:18.070Z,36.80
2023-02-16T21:06:46.348Z,36.30
2023-02-16T21:09:15.880Z,36.20
2023-02-16T21:11:44.687Z,36.30
2023-02-16T21:14:13.899Z,36.60
2023-02-16T21:16:43.637Z,36.70
2023-02-16T21:19:22.438Z,36.60
2023-02-16T21:21:52.029Z,37.50
2023-02-16T21:24:20.275Z,37.10
2023-02-16T21:26:48.442Z,36.40
2023-02-16T21:29:16.571Z,36.50
2023-02-16T21:31:46.292Z,36.50
2023-02-16T21:34:14.668Z,36.20
2023-02-16T21:36:42.834Z,35.90
2023-02-16T21:39:11.203Z,35.70
2023-02-16T21:41:38.538Z,35.60
2023-02-16T21:44:08.434Z,35.30
2023-02-16T21:46:38.212Z,35.10
2023-02-16T21:49:08.770Z,35.50
2023-02-16T21:51:39.213Z,35.60
2023-02-16T21:54:08.324Z,35.50
2023-02-16T21:56:39.234Z,35.20
2023-02-16T21:59:09.351Z,35.20
2023-02-16T22:01:39.818Z,35.10
2023-02-16T22:04:11.844Z,35.00
2023-02-16T22:06:42.336Z,34.80
2023-02-16T22:09:13.044Z,35.20
2023-02-16T22:11:41.858Z,35.10
2023-02-16T22:14:10.218Z,35.40
2023-02-16T22:16:39.525Z,35.60
2023-02-16T22:19:11.872Z,35.00
2023-02-16T22:21:43.057Z,34.80
2023-02-16T22:24:13.390Z,34.80
2023-02-16T22:26:41.697Z,34.80
2023-02-16T22:29:10.188Z,34.90
2023-02-16T22:31:38.726Z,34.50
2023-02-16T22:34:09.040Z,34.60
2023-02-16T22:36:38.703Z,34.50
2023-02-16T22:39:07.065Z,34.20
2023-02-16T22:41:35.740Z,34.70
2023-02-16T22:44:04.004Z,34.90
2023-02-16T22:46:32.430Z,35.00
2023-02-16T22:49:01.871Z,34.80
2023-02-16T22:51:31.002Z,34.70
2023-02-16T22:54:01.911Z,34.40
2023-02-16T22:56:31.183Z,34.50
2023-02-16T22:59:00.055Z,34.70
2023-02-16T23:01:30.180Z,34.60
2023-02-16T23:04:00.631Z,34.90
2023-02-16T23:06:31.123Z,34.50
2023-02-16T23:09:02.101Z,34.70
2023-02-16T23:11:30.774Z,34.40
2023-02-16T23:13:59.328Z,34.80
2023-02-16T23:16:28.975Z,35.10
2023-02-16T23:18:57.789Z,35.50
2023-02-16T23:21:27.944Z,35.20
2023-02-16T23:23:56.813Z,35.40
2023-02-16T23:26:28.196Z,35.20
2023-02-16T23:28:59.074Z,35.10
2023-02-16T23:31:27.658Z,35.10
2023-02-16T23:33:57.577Z,35.00
2023-02-16T23:36:25.732Z,35.20
2023-02-16T23:38:54.133Z,35.20
2023-02-16T23:41:22.599Z,35.10
2023-02-16T23:43:52.118Z,34.80
2023-02-16T23:46:20.335Z,35.00
2023-02-16T23:48:48.534Z,34.80
2023-02-16T23:51:16.860Z,34.80
2023-02-16T23:53:45.512Z,35.10
2023-02-16T23:56:15.909Z,34.30
2023-02-16T23:58:46.126Z,34.40
